Time;durP1;ratioP1;P1;durP2;ratioP2;P2;SDS_P1;SDS_P2;PMS_P1;PMS_P2;Temp;Humidity;BMP_temperature;BMP_pressure;BME280_temperature;BME280_humidity;BME280_pressure;Samples;Min_cycle;Max_cycle;Signal;HPM_P1;HPM_P2
2022/08/20 00:01:15;;;;;;;2.37;2.27;;;22.90;93.30;;;24.12;55.68;100448.31;4990136;28;20730;-69
2022/08/20 00:03:42;;;;;;;2.07;1.97;;;22.90;93.50;;;24.13;55.71;100444.59;4993093;28;20661;-68
2022/08/20 00:06:15;;;;;;;2.20;1.87;;;22.90;93.80;;;24.12;56.15;100448.31;4992755;28;21161;-69
2022/08/20 00:08:44;;;;;;;1.90;1.80;;;23.00;94.00;;;24.19;56.06;100441.13;4994158;28;20654;-69
2022/08/20 00:11:16;;;;;;;1.83;1.73;;;23.00;94.20;;;24.10;56.29;100452.19;4993349;28;21213;-69
2022/08/20 00:13:51;;;;;;;1.57;1.47;;;22.90;94.80;;;24.22;56.17;100450.56;4993370;28;21232;-69
2022/08/20 00:16:21;;;;;;;2.30;1.50;;;23.00;94.70;;;24.13;56.56;100449.13;4992555;28;20633;-69
2022/08/20 00:18:49;;;;;;;1.73;1.63;;;23.00;94.90;;;24.18;56.59;100452.81;4992157;28;20642;-69
2022/08/20 00:21:18;;;;;;;1.47;1.37;;;23.00;95.20;;;24.14;56.76;100456.09;4994150;28;20611;-69
2022/08/20 00:23:50;;;;;;;1.40;1.40;;;22.90;95.40;;;24.07;56.61;100458.72;4994614;28;20646;-69
2022/08/20 00:26:19;;;;;;;2.10;1.70;;;22.90;95.70;;;23.91;57.54;100467.09;4995050;28;20623;-69
2022/08/20 00:28:46;;;;;;;1.60;1.50;;;22.80;96.00;;;23.84;57.48;100464.38;4994939;28;20665;-68
2022/08/20 00:31:18;;;;;;;1.73;1.63;;;22.70;96.40;;;23.76;58.20;100469.06;4994150;28;20626;-69
2022/08/20 00:33:46;;;;;;;1.70;1.60;;;22.70;96.70;;;23.75;58.21;100472.75;4992421;28;20670;-69
2022/08/20 00:36:16;;;;;;;2.00;1.80;;;22.60;97.00;;;23.81;57.63;100479.94;4993390;28;20617;-69
2022/08/20 00:38:45;;;;;;;1.70;1.50;;;22.60;97.30;;;23.89;57.66;100474.44;4992431;28;20634;-69
2022/08/20 00:41:26;;;;;;;1.53;1.43;;;22.70;97.50;;;23.84;58.00;100477.72;4993082;28;20650;-69
2022/08/20 00:44:31;;;;;;;1.67;1.50;;;22.70;97.70;;;23.90;58.32;100481.41;4993303;28;20677;-69
2022/08/20 00:46:58;;;;;;;1.57;1.50;;;22.70;97.90;;;23.96;58.05;100479.81;4972712;28;21422;-69
2022/08/20 00:49:31;;;;;;;1.40;1.40;;;22.70;98.10;;;23.94;57.79;100474.66;4993154;28;21050;-69
2022/08/20 00:52:03;;;;;;;1.23;1.23;;;22.70;98.30;;;23.96;58.31;100477.94;4993023;28;20641;-68
2022/08/20 00:54:45;;;;;;;1.50;1.50;;;22.70;98.40;;;23.97;58.13;100473.44;4977481;28;20631;-70
2022/08/20 00:57:34;;;;;;;5.73;1.23;;;22.70;98.70;;;23.92;58.75;100487.34;4993015;28;20617;-69
2022/08/20 01:00:36;;;;;;;1.53;1.43;;;22.70;99.00;;;23.98;58.60;100489.22;4978392;28;20615;-69
2022/08/20 01:03:08;;;;;;;1.40;1.30;;;22.70;99.30;;;24.02;58.33;100484.34;4992572;28;20654;-69
2022/08/20 01:05:40;;;;;;;1.37;1.20;;;22.70;99.50;;;23.80;59.31;100484.47;4995553;28;20626;-69
2022/08/20 01:08:08;;;;;;;1.30;1.30;;;22.70;99.80;;;23.96;58.82;100491.25;4993161;28;20654;-69
2022/08/20 01:10:39;;;;;;;1.03;1.03;;;22.70;99.90;;;23.91;59.63;100488.41;4994214;28;20615;-69
2022/08/20 01:13:12;;;;;;;1.20;1.20;;;22.70;99.90;;;23.94;59.60;100487.97;4993413;28;20622;-69
2022/08/20 01:15:42;;;;;;;0.80;0.80;;;22.70;99.90;;;24.03;59.29;100484.13;4992063;28;20635;-70
2022/08/20 01:18:15;;;;;;;1.10;1.00;;;22.80;99.90;;;24.01;59.43;100483.50;4992334;28;20638;-69
2022/08/20 01:20:49;;;;;;;1.00;1.00;;;22.70;99.90;;;24.00;59.74;100486.38;4991974;28;21449;-69
2022/08/20 01:23:28;;;;;;;1.47;1.37;;;22.70;99.90;;;24.03;59.91;100489.44;4975149;28;20634;-69
2022/08/20 01:26:21;;;;;;;1.87;1.77;;;22.70;99.90;;;24.10;59.91;100492.16;4975858;28;20718;-69
2022/08/20 01:29:00;;;;;;;1.30;1.30;;;22.80;99.90;;;24.08;60.03;100491.56;4992770;28;20658;-69
2022/08/20 01:31:33;;;;;;;1.30;1.20;;;22.70;99.90;;;24.08;59.70;100484.38;4992394;28;20620;-69
2022/08/20 01:34:04;;;;;;;2.00;1.10;;;22.80;99.90;;;24.20;59.94;100476.59;4989053;28;20657;-69
2022/08/20 01:36:41;;;;;;;0.97;0.97;;;22.90;99.90;;;24.16;60.00;100486.03;4988871;28;20627;-69
2022/08/20 01:39:17;;;;;;;0.93;0.93;;;22.90;99.90;;;24.10;60.23;100490.34;4992128;28;20621;-69
2022/08/20 01:42:14;;;;;;;1.43;1.27;;;22.90;99.90;;;24.08;60.36;100504.88;4990771;28;20638;-69
2022/08/20 01:44:44;;;;;;;1.10;1.10;;;22.90;99.90;;;24.01;60.50;100504.00;4988751;28;20633;-69
2022/08/20 01:47:17;;;;;;;1.07;1.07;;;22.80;99.90;;;24.03;61.00;100510.78;4979774;28;21023;-69
2022/08/20 01:49:49;;;;;;;1.13;1.13;;;22.80;99.90;;;24.17;60.30;100501.81;4981703;28;20666;-69
2022/08/20 01:53:00;;;;;;;1.30;1.20;;;22.90;99.90;;;24.17;60.36;100503.69;4990499;28;20629;-69
2022/08/20 01:55:27;;;;;;;1.00;1.00;;;22.80;99.90;;;24.20;60.18;100498.75;4976967;28;21201;-69
2022/08/20 01:57:55;;;;;;;1.63;1.20;;;22.80;99.90;;;24.19;60.63;100505.09;4974726;28;20629;-69
2022/08/20 02:00:23;;;;;;;1.20;1.20;;;22.80;99.90;;;24.16;60.63;100507.34;4973728;28;20666;-69
2022/08/20 02:02:50;;;;;;;1.30;1.00;;;22.80;99.90;;;24.23;59.79;100516.19;4974690;28;20737;-69
2022/08/20 02:05:19;;;;;;;1.13;1.13;;;22.90;99.90;;;24.14;60.29;100526.22;4990986;28;20639;-67
2022/08/20 02:07:46;;;;;;;1.57;1.20;;;22.80;99.90;;;24.21;60.09;100519.06;4990309;28;20634;-69
2022/08/20 02:10:16;;;;;;;1.20;1.10;;;22.80;99.90;;;24.23;60.11;100519.69;4991547;28;20631;-69
2022/08/20 02:12:43;;;;;;;1.40;1.30;;;22.80;99.90;;;24.26;60.03;100521.13;4991757;28;21212;-69
2022/08/20 02:15:11;;;;;;;1.27;1.27;;;22.90;99.90;;;24.19;60.35;100525.63;4976165;28;20635;-69
2022/08/20 02:17:40;;;;;;;0.80;0.80;;;22.80;99.90;;;24.30;59.46;100515.19;4990999;28;20598;-69
2022/08/20 02:20:18;;;;;;;0.90;0.90;;;22.90;99.90;;;24.37;59.71;100518.69;4973738;28;20627;-69
2022/08/20 02:22:53;;;;;;;0.87;0.87;;;22.90;99.90;;;24.30;60.10;100522.38;4973597;28;21035;-69
2022/08/20 02:25:24;;;;;;;1.00;1.00;;;22.90;99.90;;;24.35;60.00;100518.06;4991095;28;20720;-69
2022/08/20 02:27:53;;;;;;;1.10;1.10;;;23.00;99.90;;;24.27;59.89;100526.25;4990690;28;20619;-69
2022/08/20 02:30:28;;;;;;;2.17;1.37;;;22.90;99.90;;;24.24;60.26;100529.31;4991400;28;20646;-69
2022/08/20 02:32:57;;;;;;;2.50;1.27;;;22.90;99.90;;;24.30;60.18;100528.50;4990374;28;21225;-69
2022/08/20 02:35:25;;;;;;;0.70;0.70;;;23.00;99.90;;;24.23;60.62;100527.69;4992212;28;20611;-66
2022/08/20 02:37:52;;;;;;;1.23;1.23;;;22.90;99.90;;;24.19;60.42;100520.28;4986882;28;21005;-69
2022/08/20 02:40:25;;;;;;;0.93;0.93;;;22.90;99.90;;;24.06;61.18;100525.59;4991219;28;20618;-69
2022/08/20 02:42:57;;;;;;;0.90;0.90;;;22.80;99.90;;;24.13;61.17;100526.44;4973629;28;20652;-69
2022/08/20 02:45:25;;;;;;;1.23;1.13;;;22.80;99.90;;;24.16;60.87;100529.50;4990848;28;20629;-67
2022/08/20 02:47:55;;;;;;;1.10;1.00;;;22.80;99.90;;;24.25;60.89;100522.16;4988742;28;20634;-69
2022/08/20 02:50:24;;;;;;;1.03;1.03;;;22.80;99.90;;;24.19;60.64;100523.75;4991146;28;20635;-69
2022/08/20 02:52:51;;;;;;;0.90;0.90;;;22.90;99.90;;;24.27;60.92;100514.78;4972518;28;20655;-69
2022/08/20 02:55:20;;;;;;;0.90;0.90;;;22.90;99.90;;;24.18;60.54;100519.47;4990071;28;20637;-69
2022/08/20 02:57:55;;;;;;;1.17;1.13;;;22.90;99.90;;;24.11;61.25;100531.94;4990980;28;21014;-69
2022/08/20 03:00:26;;;;;;;1.10;1.10;;;22.90;99.90;;;24.10;61.14;100526.81;4991207;28;20684;-69
2022/08/20 03:02:53;;;;;;;0.87;0.87;;;22.80;99.90;;;24.12;61.05;100530.94;4990315;28;20686;-69
2022/08/20 03:05:20;;;;;;;3.43;1.30;;;22.80;99.90;;;24.13;61.27;100537.91;4990595;28;20612;-69
2022/08/20 03:07:52;;;;;;;1.10;1.10;;;22.80;99.90;;;24.14;61.37;100539.56;4989194;28;21002;-69
2022/08/20 03:10:25;;;;;;;1.20;1.20;;;22.80;99.90;;;24.20;61.23;100529.91;4990306;28;20619;-69
2022/08/20 03:12:53;;;;;;;3.67;1.30;;;22.80;99.90;;;24.23;61.26;100530.38;4990569;28;21275;-69
2022/08/20 03:15:20;;;;;;;1.13;1.10;;;22.80;99.90;;;24.17;61.40;100531.13;4991240;28;20623;-69
2022/08/20 03:17:47;;;;;;;4.00;0.97;;;22.90;99.90;;;24.18;61.39;100530.13;4988986;28;20638;-69
2022/08/20 03:20:14;;;;;;;1.07;0.97;;;22.80;99.90;;;24.15;61.36;100533.19;4989763;28;20991;-69
2022/08/20 03:22:41;;;;;;;1.20;1.10;;;22.80;99.90;;;24.10;61.43;100529.50;4989712;28;20658;-69
2022/08/20 03:25:09;;;;;;;1.40;1.40;;;22.80;99.90;;;24.09;61.36;100528.66;4990585;28;20988;-69
2022/08/20 03:27:37;;;;;;;1.57;1.57;;;22.70;99.90;;;24.11;61.63;100525.78;4990721;28;20638;-69
2022/08/20 03:30:08;;;;;;;2.50;1.20;;;22.70;99.90;;;24.15;61.39;100527.06;4990914;28;20659;-69
2022/08/20 03:32:36;;;;;;;1.40;1.40;;;22.80;99.90;;;24.14;61.61;100536.06;4989433;28;20669;-69
2022/08/20 03:35:07;;;;;;;1.40;1.40;;;22.70;99.90;;;23.73;63.05;100528.91;4973648;28;20610;-69
2022/08/20 03:37:36;;;;;;;1.20;1.20;;;22.80;99.90;;;24.13;61.49;100526.44;4973773;28;20680;-69
2022/08/20 03:40:11;;;;;;;1.27;1.27;;;22.80;99.90;;;24.16;61.58;100528.69;4977354;28;20626;-69
2022/08/20 03:42:39;;;;;;;3.50;1.30;;;22.80;99.90;;;24.24;61.13;100534.66;4994322;28;20654;-70
2022/08/20 03:45:08;;;;;;;1.30;1.30;;;22.80;99.90;;;24.18;61.79;100538.13;4993569;28;21067;-69
2022/08/20 03:47:35;;;;;;;1.23;1.23;;;22.80;99.90;;;24.23;61.39;100532.19;4993951;28;20703;-69
2022/08/20 03:50:06;;;;;;;1.30;1.30;;;22.80;99.90;;;24.23;61.41;100532.19;4992751;28;20761;-69
2022/08/20 03:52:33;;;;;;;1.40;1.40;;;22.80;99.90;;;24.20;61.54;100538.75;4976116;28;20665;-69
2022/08/20 03:55:00;;;;;;;1.20;1.20;;;22.80;99.90;;;24.17;61.75;100533.81;4976803;28;20613;-69
2022/08/20 03:57:27;;;;;;;2.50;1.60;;;22.80;99.90;;;24.19;61.94;100534.41;4993531;28;21216;-69
2022/08/20 03:59:54;;;;;;;1.40;1.40;;;22.70;99.90;;;24.14;61.62;100530.72;4992747;28;20638;-69
2022/08/20 04:02:24;;;;;;;2.93;1.00;;;22.70;99.90;;;24.13;62.30;100527.22;4993228;28;20638;-69
2022/08/20 04:04:53;;;;;;;1.50;1.37;;;22.70;99.90;;;24.19;61.55;100529.09;4994326;28;20643;-69
2022/08/20 04:07:26;;;;;;;0.90;0.90;;;22.70;99.90;;;24.11;62.27;100528.44;4975810;28;20749;-70
2022/08/20 04:09:55;;;;;;;1.20;1.20;;;22.70;99.90;;;24.06;62.25;100534.41;4976986;28;20658;-69
2022/08/20 04:12:24;;;;;;;1.20;1.20;;;22.70;99.90;;;24.03;62.62;100531.25;4993720;28;21245;-69
2022/08/20 04:14:53;;;;;;;2.10;1.20;;;22.70;99.90;;;24.02;62.25;100535.81;4994109;28;20709;-70
2022/08/20 04:17:20;;;;;;;1.40;1.30;;;22.70;99.90;;;23.95;62.70;100537.59;4993837;28;20634;-69
2022/08/20 04:19:48;;;;;;;1.20;1.20;;;22.60;99.90;;;23.98;63.18;100531.06;4993171;28;20741;-69
2022/08/20 04:22:15;;;;;;;1.53;1.40;;;22.60;99.90;;;23.92;63.13;100528.16;4990870;28;20654;-69
2022/08/20 04:24:42;;;;;;;0.90;0.90;;;22.60;99.90;;;23.80;63.32;100534.25;4992824;28;20630;-69
2022/08/20 04:27:09;;;;;;;1.37;1.37;;;22.50;99.90;;;23.89;63.60;100535.75;4993440;28;20614;-69
2022/08/20 04:29:41;;;;;;;1.40;1.40;;;22.60;99.90;;;23.89;63.42;100533.06;4959999;28;20669;-69
2022/08/20 04:32:09;;;;;;;1.40;1.40;;;22.60;99.90;;;23.90;63.41;100535.53;5004443;23;20651;-66
2022/08/20 04:34:36;;;;;;;4.93;1.70;;;22.60;99.90;;;23.92;63.11;100538.00;4976551;28;20626;-66
2022/08/20 04:37:03;;;;;;;1.57;1.40;;;22.60;99.90;;;23.87;63.65;100537.78;4991606;28;20649;-66
2022/08/20 04:39:31;;;;;;;1.30;1.30;;;22.50;99.90;;;23.82;63.94;100535.72;4992952;28;21175;-66
2022/08/20 04:41:58;;;;;;;1.50;1.40;;;22.50;99.90;;;23.80;63.98;100536.91;4989080;28;20639;-66
2022/08/20 04:44:26;;;;;;;1.63;1.53;;;22.50;99.90;;;23.74;64.25;100543.03;4973720;28;20657;-67
2022/08/20 04:46:53;;;;;;;1.47;1.37;;;22.50;99.90;;;23.81;64.04;100542.03;4974715;28;21046;-66
2022/08/20 04:49:23;;;;;;;2.00;1.67;;;22.50;99.90;;;23.80;64.09;100542.25;4983601;28;20668;-66
2022/08/20 04:51:51;;;;;;;1.40;1.40;;;22.50;99.90;;;23.95;63.24;100536.78;4985546;28;20646;-65
2022/08/20 04:54:18;;;;;;;1.60;1.30;;;22.50;99.90;;;23.91;63.81;100537.16;4992277;28;20661;-66
2022/08/20 04:56:47;;;;;;;1.40;1.40;;;22.60;99.90;;;23.89;63.93;100541.06;4992084;28;20623;-66
2022/08/20 04:59:13;;;;;;;1.27;1.27;;;22.50;99.90;;;23.90;63.86;100538.19;4993184;28;20642;-68
2022/08/20 05:01:40;;;;;;;1.40;1.17;;;22.60;99.90;;;23.96;63.32;100543.75;4989760;28;20652;-66
2022/08/20 05:04:07;;;;;;;1.60;1.50;;;22.60;99.90;;;23.89;63.76;100552.53;4992672;28;20662;-66
2022/08/20 05:06:34;;;;;;;1.37;1.37;;;22.60;99.90;;;23.91;63.83;100553.16;4999286;28;20645;-67
2022/08/20 05:09:01;;;;;;;1.50;1.40;;;22.60;99.90;;;23.90;63.83;100558.69;4991590;28;20659;-66
2022/08/20 05:11:29;;;;;;;1.20;1.20;;;22.60;99.90;;;23.98;63.74;100557.72;4991025;28;21193;-67
2022/08/20 05:14:07;;;;;;;1.67;1.57;;;22.60;99.90;;;24.05;63.15;100556.72;4992195;28;21027;-68
2022/08/20 05:16:37;;;;;;;1.40;1.30;;;22.70;99.90;;;24.04;63.45;100564.91;4987472;28;20631;-66
2022/08/20 05:19:11;;;;;;;1.67;1.57;;;22.70;99.90;;;24.01;63.61;100574.13;5000987;28;20737;-66
2022/08/20 05:21:39;;;;;;;1.40;1.30;;;22.70;99.90;;;24.01;63.86;100570.63;4991216;28;20634;-67
2022/08/20 05:24:06;;;;;;;1.50;1.40;;;22.70;99.90;;;23.94;63.68;100572.47;4975368;28;20637;-66
2022/08/20 05:26:33;;;;;;;1.30;1.30;;;22.60;99.90;;;23.85;64.13;100572.59;4991784;28;21222;-67
2022/08/20 05:29:03;;;;;;;1.10;1.10;;;22.60;99.90;;;23.90;63.92;100572.00;4992256;28;20655;-66
2022/08/20 05:31:32;;;;;;;1.57;1.43;;;22.60;99.90;;;23.85;63.91;100577.13;4991891;28;20815;-68
2022/08/20 05:34:09;;;;;;;1.80;1.67;;;22.60;99.90;;;23.90;63.86;100588.81;4991968;28;20682;-66
2022/08/20 05:36:41;;;;;;;1.40;1.40;;;22.60;99.90;;;23.98;64.00;100584.38;4991057;28;20652;-66
2022/08/20 05:39:09;;;;;;;1.40;1.30;;;22.70;99.90;;;23.90;64.12;100580.84;4974465;28;21243;-67
2022/08/20 05:41:38;;;;;;;1.67;1.50;;;22.70;99.90;;;24.04;63.84;100588.91;4991590;28;20745;-67
2022/08/20 05:44:09;;;;;;;2.20;1.73;;;22.70;99.90;;;24.12;63.22;100594.91;4993614;28;20654;-66
2022/08/20 05:46:39;;;;;;;2.00;1.27;;;22.80;99.90;;;24.12;63.88;100597.56;4992117;28;20698;-67
2022/08/20 05:49:19;;;;;;;1.87;1.77;;;22.80;99.90;;;24.14;64.01;100594.69;4991897;28;20671;-67
2022/08/20 05:51:48;;;;;;;1.80;1.70;;;22.80;99.90;;;24.23;63.42;100605.00;4992166;28;20615;-67
2022/08/20 05:54:15;;;;;;;2.00;1.90;;;22.80;99.90;;;24.16;63.38;100604.16;4975819;28;21232;-67
2022/08/20 05:56:42;;;;;;;1.90;1.80;;;22.80;99.90;;;24.24;63.65;100611.97;4991895;28;20622;-66
2022/08/20 05:59:11;;;;;;;1.87;1.77;;;22.90;99.90;;;24.30;63.62;100603.16;4990666;28;20642;-67
2022/08/20 06:01:40;;;;;;;1.73;1.73;;;22.90;99.90;;;24.41;63.35;100605.28;4991756;28;21211;-67
2022/08/20 06:04:26;;;;;;;1.90;1.77;;;23.00;99.90;;;24.46;62.88;100610.00;4973707;28;20662;-67
2022/08/20 06:07:11;;;;;;;1.60;1.50;;;23.00;99.90;;;24.62;62.41;100613.13;4991870;28;20619;-66
2022/08/20 06:09:38;;;;;;;1.23;1.23;;;23.10;99.90;;;24.96;62.19;100598.84;4991865;28;20666;-66
2022/08/20 06:12:10;;;;;;;3.00;1.80;;;23.40;99.90;;;25.28;61.05;100607.88;4991631;28;20718;-68
2022/08/20 06:14:37;;;;;;;1.77;1.60;;;23.70;99.90;;;25.44;61.06;100596.81;4990009;28;20635;-67
2022/08/20 06:17:11;;;;;;;1.00;1.00;;;23.80;99.90;;;25.58;60.92;100601.09;4990226;28;20634;-67
2022/08/20 06:19:40;;;;;;;1.70;1.60;;;23.90;99.90;;;25.60;60.98;100607.06;4957838;28;21156;-67
2022/08/20 06:22:12;;;;;;;2.50;1.83;;;24.00;99.90;;;25.62;61.43;100607.66;4991676;28;20710;-67
2022/08/20 06:24:49;;;;;;;1.40;1.40;;;23.90;99.90;;;25.71;61.12;100611.78;4991434;28;20842;-67
2022/08/20 06:27:16;;;;;;;1.80;1.70;;;24.00;99.90;;;25.91;60.35;100617.91;4990070;28;20709;-69
2022/08/20 06:29:44;;;;;;;1.33;1.27;;;24.20;99.90;;;26.19;60.07;100611.47;4991341;28;20655;-66
2022/08/20 06:32:11;;;;;;;1.60;1.40;;;24.40;99.90;;;26.41;58.92;100624.31;4991438;28;20738;-67
2022/08/20 06:34:37;;;;;;;1.60;1.50;;;24.60;99.90;;;26.38;59.42;100615.91;4991529;28;20626;-68
2022/08/20 06:37:26;;;;;;;1.80;1.70;;;24.60;99.90;;;26.22;59.62;100619.03;4967109;28;20633;-66
2022/08/20 06:40:06;;;;;;;1.70;1.60;;;24.60;99.90;;;26.15;60.03;100624.44;4974793;28;20619;-67
2022/08/20 06:42:33;;;;;;;1.50;1.50;;;24.40;99.90;;;26.17;59.98;100620.50;4990350;28;20757;-67
2022/08/20 06:45:03;;;;;;;1.80;1.70;;;24.40;99.90;;;26.10;60.24;100619.72;4991822;28;20625;-68
2022/08/20 06:47:31;;;;;;;2.80;1.27;;;24.40;99.90;;;25.88;61.13;100617.47;4973406;28;20631;-68
2022/08/20 06:49:58;;;;;;;1.70;1.63;;;24.20;99.90;;;25.73;61.71;100619.56;4974311;28;21239;-67
2022/08/20 06:52:25;;;;;;;1.60;1.50;;;24.20;99.90;;;25.65;61.94;100619.81;4989805;28;20693;-67
2022/08/20 06:55:14;;;;;;;1.90;1.80;;;24.10;99.90;;;25.61;62.32;100622.06;4978184;28;20607;-67
2022/08/20 06:57:42;;;;;;;1.73;1.63;;;24.00;99.90;;;25.60;61.72;100620.41;4989238;28;20726;-67
2022/08/20 07:00:18;;;;;;;2.00;1.90;;;24.00;99.90;;;25.70;60.84;100623.50;4991638;28;20633;-67
2022/08/20 07:02:48;;;;;;;1.80;1.53;;;24.00;99.90;;;25.68;60.91;100622.06;4971953;28;20645;-67
2022/08/20 07:05:15;;;;;;;2.00;1.90;;;24.00;99.90;;;25.80;60.24;100626.56;4991427;28;20655;-67
2022/08/20 07:07:48;;;;;;;2.37;2.27;;;24.10;99.90;;;25.82;60.03;100629.84;4989066;28;21366;-68
2022/08/20 07:10:17;;;;;;;4.00;2.63;;;24.20;99.90;;;25.84;59.83;100627.78;4991981;28;20670;-67
2022/08/20 07:12:45;;;;;;;1.40;1.40;;;24.20;99.90;;;25.95;59.63;100639.69;4988439;28;20665;-69
2022/08/20 07:15:13;;;;;;;1.53;1.43;;;24.30;99.90;;;25.94;59.83;100633.50;4992619;28;20630;-67
2022/08/20 07:17:41;;;;;;;1.87;1.77;;;24.40;99.90;;;25.96;59.32;100636.78;4989418;28;20622;-67
2022/08/20 07:20:12;;;;;;;2.17;2.07;;;24.30;99.90;;;26.01;58.90;100628.97;4985385;28;20650;-67
2022/08/20 07:22:40;;;;;;;1.90;1.80;;;24.40;99.90;;;26.10;59.22;100633.09;4999874;28;20665;-66
2022/08/20 07:25:11;;;;;;;1.97;1.87;;;24.50;99.90;;;26.22;58.75;100635.91;4986828;28;20664;-67
2022/08/20 07:27:38;;;;;;;1.87;1.77;;;24.50;99.90;;;26.35;58.26;100629.69;4991379;28;20638;-65
2022/08/20 07:32:57;;;;;;;2.00;1.90;;;24.80;99.90;;;26.79;56.53;100641.22;4989844;28;20647;-67
2022/08/20 07:35:26;;;;;;;1.97;1.87;;;25.00;99.90;;;27.04;55.72;100635.94;4991556;28;20615;-67
2022/08/20 07:37:53;;;;;;;2.37;2.27;;;25.20;99.90;;;27.19;55.02;100630.25;4990132;28;20649;-66
2022/08/20 07:40:28;;;;;;;1.70;1.60;;;25.30;99.90;;;27.38;54.53;100640.84;4990170;28;20619;-66
2022/08/20 07:42:59;;;;;;;5.43;2.10;;;25.50;99.90;;;27.70;53.63;100635.38;4981205;28;20756;-67
2022/08/20 07:45:27;;;;;;;1.73;1.67;;;25.70;99.90;;;28.08;52.85;100636.84;4986445;28;20623;-70
2022/08/20 07:47:54;;;;;;;10.30;2.73;;;25.90;99.90;;;28.30;51.78;100642.59;4990344;28;20722;-67
2022/08/20 07:50:24;;;;;;;2.10;1.90;;;26.20;99.90;;;28.25;51.49;100637.06;4954684;28;20695;-67
2022/08/20 07:52:52;;;;;;;1.67;1.67;;;26.30;99.90;;;27.93;52.07;100640.91;4971449;28;20734;-68
2022/08/20 07:55:20;;;;;;;2.33;1.80;;;26.20;99.90;;;27.65;53.21;100641.41;4959401;28;20650;-65
2022/08/20 07:57:49;;;;;;;2.00;1.90;;;26.00;99.90;;;27.44;53.43;100639.13;4970919;28;20619;-67
2022/08/20 08:00:19;;;;;;;5.43;2.07;;;25.90;99.90;;;27.18;54.48;100642.81;4990199;28;20641;-67
2022/08/20 08:02:46;;;;;;;1.70;1.60;;;25.80;99.90;;;26.96;55.06;100654.91;4990028;28;21237;-67
2022/08/20 08:05:14;;;;;;;2.17;1.73;;;25.50;99.90;;;26.84;55.71;100662.00;4989351;28;20670;-67
2022/08/20 08:07:42;;;;;;;2.00;1.50;;;25.40;99.90;;;26.89;55.44;100648.78;4971496;28;20631;-67
2022/08/20 08:10:17;;;;;;;1.87;1.77;;;25.40;99.90;;;26.81;55.54;100649.84;4973095;28;20663;-66
2022/08/20 08:12:52;;;;;;;2.17;1.97;;;25.30;99.90;;;26.93;55.55;100652.69;4972288;28;20749;-66
2022/08/20 08:15:30;;;;;;;1.90;1.80;;;25.30;99.90;;;27.20;54.82;100645.25;4973113;28;20641;-67
2022/08/20 08:18:06;;;;;;;2.73;2.00;;;25.50;99.90;;;27.35;55.84;100649.31;4973048;28;20638;-67
2022/08/20 08:20:41;;;;;;;1.80;1.80;;;25.60;99.90;;;27.75;55.34;100648.94;4979119;28;20644;-67
2022/08/20 08:23:12;;;;;;;1.70;1.60;;;25.90;99.90;;;27.85;56.67;100655.44;4990545;28;20661;-67
2022/08/20 08:25:58;;;;;;;2.10;1.93;;;26.00;99.90;;;27.78;57.20;100649.31;4992994;28;20634;-68
2022/08/20 08:28:28;;;;;;;1.63;1.60;;;26.00;99.90;;;27.41;58.72;100645.75;4973469;28;20657;-67
2022/08/20 08:30:55;;;;;;;1.80;1.70;;;25.80;99.90;;;27.14;59.34;100648.81;4993648;28;20674;-65
2022/08/20 08:33:27;;;;;;;1.57;1.50;;;25.70;99.90;;;26.94;60.55;100656.19;4991769;28;20643;-69
2022/08/20 08:36:08;;;;;;;1.67;1.63;;;25.50;99.90;;;26.80;61.45;100663.47;4977009;28;20634;-66
2022/08/20 08:38:38;;;;;;;2.80;1.80;;;25.30;99.90;;;26.55;62.72;100652.66;4991868;28;20639;-66
2022/08/20 08:41:27;;;;;;;1.90;1.80;;;25.20;99.90;;;26.67;63.48;100655.47;4994252;28;20626;-67
2022/08/20 08:44:11;;;;;;;1.97;1.87;;;25.10;99.90;;;26.79;62.07;100654.59;4983572;28;20672;-67
2022/08/20 08:46:43;;;;;;;3.07;1.90;;;25.20;99.90;;;28.58;58.25;100656.28;4992432;28;20737;-67
2022/08/20 08:49:20;;;;;;;1.70;1.60;;;25.90;99.90;;;33.15;46.57;100659.69;4992088;28;20618;-65
2022/08/20 08:52:19;;;;;;;1.70;1.60;;;28.00;99.90;;;34.49;40.43;100660.78;4976649;28;20646;-67
2022/08/20 08:54:51;;;;;;;1.93;1.83;;;29.60;98.80;;;34.64;40.44;100663.56;4984086;28;20618;-65
2022/08/20 08:57:18;;;;;;;7.17;5.47;;;30.40;97.30;;;34.10;41.21;100654.13;4966861;28;20625;-66
2022/08/20 08:59:54;;;;;;;4.27;3.97;;;30.70;95.90;;;33.50;42.69;100647.28;4964035;28;20983;-70
2022/08/20 09:02:33;;;;;;;2.10;1.87;;;30.60;95.60;;;34.87;40.05;100652.22;4967258;28;21245;-67
2022/08/20 09:05:12;;;;;;;1.60;1.50;;;31.10;95.10;;;36.88;35.04;100660.97;4974767;28;20657;-64
2022/08/20 09:07:47;;;;;;;1.40;1.40;;;32.30;92.90;;;37.66;33.55;100656.25;4982114;28;21407;-70
2022/08/20 09:10:15;;;;;;;1.70;1.60;;;33.00;91.00;;;36.04;35.52;100652.97;5000083;28;20664;-67
2022/08/20 09:12:49;;;;;;;1.30;1.30;;;32.60;90.00;;;34.26;37.71;100640.41;5001484;28;20649;-64
2022/08/20 09:15:18;;;;;;;1.60;1.50;;;31.80;89.50;;;34.49;37.88;100647.25;4994215;28;20638;-66
2022/08/20 09:17:45;;;;;;;1.30;1.30;;;31.50;90.50;;;37.74;32.20;100650.19;4997452;28;20952;-67
2022/08/20 09:20:12;;;;;;;1.43;1.33;;;32.90;87.40;;;35.95;35.20;100651.94;4984017;28;20653;-68
2022/08/20 09:22:40;;;;;;;1.10;1.10;;;32.70;85.80;;;35.59;34.88;100659.31;4984645;28;21045;-68
2022/08/20 09:25:07;;;;;;;1.30;1.30;;;32.40;85.20;;;37.43;33.37;100648.88;4983710;28;20622;-67
2022/08/20 09:27:34;;;;;;;1.30;1.30;;;33.00;84.90;;;38.73;30.42;100655.50;5000317;28;20649;-67
2022/08/20 09:30:05;;;;;;;1.30;1.30;;;34.00;81.30;;;37.75;31.06;100655.34;4991366;28;20682;-66
2022/08/20 09:32:32;;;;;;;1.13;1.10;;;33.90;79.50;;;38.78;30.28;100651.91;4992787;28;20658;-66
2022/08/20 09:35:00;;;;;;;0.90;0.90;;;34.20;78.00;;;37.87;30.48;100650.31;4988687;28;20645;-66
2022/08/20 09:37:30;;;;;;;1.40;1.40;;;34.10;76.30;;;38.37;30.90;100648.09;4973241;28;20631;-66
2022/08/20 09:40:06;;;;;;;1.00;1.00;;;34.10;76.80;;;43.79;23.39;100652.22;4992446;28;20712;-66
2022/08/20 09:42:35;;;;;;;1.00;1.00;;;36.40;72.00;;;47.82;19.14;100649.78;4992449;28;20698;-67
2022/08/20 09:45:08;;;;;;;0.90;0.90;;;39.00;64.90;;;48.27;18.61;100644.50;4990733;28;20614;-66
2022/08/20 09:47:38;;;;;;;0.83;0.83;;;40.60;60.00;;;45.79;20.88;100640.78;4982799;28;20619;-66
2022/08/20 09:50:12;;;;;;;1.07;1.07;;;40.30;57.60;;;41.58;24.76;100620.84;4972532;28;20713;-68
2022/08/20 09:52:47;;;;;;;0.90;0.90;;;38.30;58.20;;;38.81;26.51;100624.03;4972989;28;20743;-66
2022/08/20 09:55:31;;;;;;;0.60;0.60;;;36.40;58.00;;;36.80;28.83;100609.94;4974658;28;20618;-67
2022/08/20 09:58:26;;;;;;;0.50;0.50;;;34.50;59.60;;;35.57;30.00;100609.91;4989525;28;20719;-66
2022/08/20 10:00:53;;;;;;;0.60;0.60;;;33.40;60.50;;;33.97;32.05;100606.66;4976957;28;20625;-66
2022/08/20 10:03:20;;;;;;;0.60;0.60;;;31.90;62.70;;;34.32;32.31;100606.84;4984525;28;20658;-66
2022/08/20 10:05:47;;;;;;;0.63;0.63;;;31.60;64.80;;;36.18;29.90;100600.50;4985523;28;20615;-66
2022/08/20 10:08:14;;;;;;;0.60;0.60;;;32.20;64.40;;;40.11;25.16;100614.56;4981738;28;20627;-67
2022/08/20 10:10:41;;;;;;;0.60;0.60;;;34.20;62.20;;;39.14;25.88;100612.06;4990383;28;21040;-66
2022/08/20 10:13:08;;;;;;;0.60;0.60;;;34.60;60.30;;;37.37;27.65;100612.75;4989517;28;20713;-66
2022/08/20 10:15:39;;;;;;;0.60;0.60;;;34.20;60.40;;;35.65;30.32;100614.81;4981968;28;20638;-68
2022/08/20 10:18:07;;;;;;;0.60;0.60;;;33.40;61.70;;;34.20;32.58;100614.38;4988011;28;20634;-66
2022/08/20 10:20:38;;;;;;;0.60;0.60;;;32.30;63.30;;;33.31;34.83;100610.03;4963258;28;21188;-67
2022/08/20 10:23:05;;;;;;;0.80;0.80;;;31.60;65.80;;;32.22;36.60;100612.22;4974558;28;20762;-67
2022/08/20 10:25:32;;;;;;;0.60;0.60;;;30.80;66.60;;;31.69;37.49;100609.34;4988668;28;20642;-66
2022/08/20 10:27:59;;;;;;;0.60;0.60;;;30.10;68.20;;;31.42;38.35;100611.09;4982876;28;20630;-67
2022/08/20 10:30:26;;;;;;;0.90;0.90;;;29.80;69.70;;;31.26;38.75;100607.34;4992352;28;20693;-67
2022/08/20 10:32:53;;;;;;;0.67;0.67;;;29.50;70.80;;;31.96;37.88;100607.59;4999607;23;21015;-69